createdAt,value
2022-08-17T00:01:56.558Z,23.09
2022-08-17T00:03:59.011Z,23.01
2022-08-17T00:06:12.165Z,22.99
2022-08-17T00:08:16.930Z,22.99
2022-08-17T00:10:18.914Z,22.93
2022-08-17T00:12:40.764Z,22.99
2022-08-17T00:14:45.068Z,22.99
2022-08-17T00:16:52.613Z,22.94
2022-08-17T00:19:07.767Z,22.93
2022-08-17T00:21:11.794Z,22.99
2022-08-17T00:23:17.139Z,23.04
2022-08-17T00:25:20.201Z,23.05
2022-08-17T00:27:22.386Z,23.08
2022-08-17T00:29:24.793Z,23.13
2022-08-17T00:31:26.737Z,23.18
2022-08-17T00:33:33.822Z,23.21
2022-08-17T00:35:35.783Z,23.21
2022-08-17T00:37:37.768Z,23.25
2022-08-17T00:39:39.939Z,23.26
2022-08-17T00:41:42.507Z,23.20
2022-08-17T00:43:51.615Z,23.22
2022-08-17T00:45:54.149Z,23.22
2022-08-17T00:47:56.115Z,23.25
2022-08-17T00:49:57.981Z,23.22
2022-08-17T00:52:11.946Z,23.25
2022-08-17T00:54:32.573Z,23.22
2022-08-17T00:56:47.208Z,23.22
2022-08-17T00:58:50.073Z,23.18
2022-08-17T01:00:52.310Z,23.18
2022-08-17T01:02:58.197Z,23.15
2022-08-17T01:05:00.493Z,23.13
2022-08-17T01:07:04.677Z,23.10
2022-08-17T01:09:08.753Z,23.07
2022-08-17T01:11:10.570Z,23.05
2022-08-17T01:13:13.086Z,23.00
2022-08-17T01:15:16.112Z,22.92
2022-08-17T01:17:17.838Z,22.87
2022-08-17T01:19:25.437Z,22.81
2022-08-17T01:21:34.107Z,22.80
2022-08-17T01:23:36.511Z,22.73
2022-08-17T01:25:38.313Z,22.65
2022-08-17T01:27:41.528Z,22.54
2022-08-17T01:29:47.192Z,22.36
2022-08-17T01:31:52.606Z,22.26
2022-08-17T01:33:54.585Z,22.13
2022-08-17T01:35:56.662Z,22.15
2022-08-17T01:37:58.986Z,22.18
2022-08-17T01:40:07.680Z,22.25
2022-08-17T01:42:25.106Z,22.26
2022-08-17T01:44:27.955Z,22.25
2022-08-17T01:46:33.617Z,22.26
2022-08-17T01:48:38.298Z,22.29
2022-08-17T01:50:42.161Z,22.18
2022-08-17T01:52:45.596Z,21.97
2022-08-17T01:54:48.213Z,21.91
2022-08-17T01:56:51.624Z,21.83
2022-08-17T01:58:53.490Z,21.73
2022-08-17T02:01:00.310Z,21.53
2022-08-17T02:03:03.786Z,21.32
2022-08-17T02:05:06.857Z,21.28
2022-08-17T02:07:08.548Z,21.38
2022-08-17T02:09:16.473Z,21.43
2022-08-17T02:11:21.047Z,21.50
2022-08-17T02:13:23.235Z,21.55
2022-08-17T02:15:25.497Z,21.60
2022-08-17T02:17:27.359Z,21.64
2022-08-17T02:19:31.584Z,21.65
2022-08-17T02:21:34.180Z,21.72
2022-08-17T02:23:38.529Z,21.79
2022-08-17T02:25:43.329Z,21.80
2022-08-17T02:27:45.459Z,21.78
2022-08-17T02:29:47.491Z,21.84
2022-08-17T02:31:49.796Z,21.86
2022-08-17T02:34:00.542Z,21.84
2022-08-17T02:36:09.367Z,21.80
2022-08-17T02:38:11.296Z,21.79
2022-08-17T02:40:13.195Z,21.80
2022-08-17T02:42:15.421Z,21.78
2022-08-17T02:44:35.415Z,21.79
2022-08-17T02:46:39.020Z,21.78
2022-08-17T02:48:40.918Z,21.74
2022-08-17T02:50:43.126Z,21.73
2022-08-17T02:52:48.870Z,21.70
2022-08-17T02:55:09.667Z,21.71
2022-08-17T02:57:11.808Z,21.72
2022-08-17T02:59:14.031Z,21.69
2022-08-17T03:01:16.004Z,21.66
2022-08-17T03:03:20.907Z,21.65
2022-08-17T03:05:25.728Z,21.52
2022-08-17T03:07:27.495Z,21.26
2022-08-17T03:09:29.258Z,21.13
2022-08-17T03:11:31.117Z,21.14
2022-08-17T03:13:33.284Z,21.21
2022-08-17T03:15:35.770Z,21.26
2022-08-17T03:17:42.695Z,21.28
2022-08-17T03:19:44.921Z,21.30
2022-08-17T03:21:46.717Z,21.26
2022-08-17T03:23:57.739Z,21.19
2022-08-17T03:26:00.460Z,21.17
2022-08-17T03:28:03.698Z,21.23
2022-08-17T03:30:07.249Z,21.27
2022-08-17T03:32:15.193Z,21.35
2022-08-17T03:34:17.190Z,21.38
2022-08-17T03:36:18.904Z,21.42
2022-08-17T03:38:21.366Z,21.42
2022-08-17T03:40:55.841Z,21.46
2022-08-17T03:42:46.138Z,21.45
2022-08-17T03:44:52.787Z,21.30
2022-08-17T03:47:17.878Z,21.24
2022-08-17T03:49:38.381Z,21.18
2022-08-17T03:51:58.557Z,21.23
2022-08-17T03:54:19.195Z,21.30
2022-08-17T03:56:39.594Z,21.40
2022-08-17T03:58:41.316Z,21.44
2022-08-17T04:00:46.280Z,21.48
2022-08-17T04:02:48.419Z,21.55
2022-08-17T04:04:51.184Z,21.58
2022-08-17T04:06:53.620Z,21.62
2022-08-17T04:08:55.860Z,21.64
2022-08-17T04:10:58.254Z,21.73
2022-08-17T04:13:00.681Z,21.78
2022-08-17T04:15:02.976Z,21.79
2022-08-17T04:17:05.610Z,21.81
2022-08-17T04:19:07.417Z,21.83
2022-08-17T04:21:09.650Z,21.84
2022-08-17T04:23:16.870Z,21.90
2022-08-17T04:25:19.786Z,21.93
2022-08-17T04:27:21.639Z,21.99
2022-08-17T04:29:23.687Z,21.97
2022-08-17T04:31:26.355Z,21.99
2022-08-17T04:33:29.822Z,21.98
2022-08-17T04:35:35.217Z,22.02
2022-08-17T04:37:37.047Z,22.09
2022-08-17T04:39:38.825Z,22.13
2022-08-17T04:41:59.372Z,22.16
2022-08-17T04:44:01.366Z,22.23
2022-08-17T04:46:08.822Z,22.19
2022-08-17T04:48:10.568Z,22.14
2022-08-17T04:50:12.553Z,22.07
2022-08-17T04:52:37.480Z,22.05
2022-08-17T04:54:36.319Z,22.09
2022-08-17T04:56:38.735Z,22.14
2022-08-17T04:58:40.850Z,22.22
2022-08-17T05:00:42.654Z,22.25
2022-08-17T05:02:50.473Z,22.33
2022-08-17T05:04:52.630Z,22.40
2022-08-17T05:06:57.236Z,22.51
2022-08-17T05:09:00.013Z,22.56
2022-08-17T05:11:02.075Z,22.64
2022-08-17T05:13:25.167Z,22.67
2022-08-17T05:15:27.911Z,22.74
2022-08-17T05:17:29.939Z,22.80
2022-08-17T05:19:31.867Z,22.86
2022-08-17T05:21:33.704Z,22.92
2022-08-17T05:23:42.916Z,23.00
2022-08-17T05:25:50.856Z,23.04
2022-08-17T05:27:53.327Z,23.05
2022-08-17T05:29:55.098Z,23.15
2022-08-17T05:31:57.089Z,23.18
2022-08-17T05:33:59.311Z,23.21
2022-08-17T05:36:02.541Z,23.23
2022-08-17T05:38:05.488Z,23.24
2022-08-17T05:40:08.002Z,23.29
2022-08-17T05:42:10.321Z,23.37
2022-08-17T05:44:12.699Z,23.38
2022-08-17T05:46:40.809Z,23.41
2022-08-17T05:48:47.547Z,23.40
2022-08-17T05:51:26.589Z,23.39
2022-08-17T05:53:40.352Z,23.38
2022-08-17T05:55:57.585Z,23.19
2022-08-17T05:58:09.205Z,23.06
2022-08-17T06:00:21.764Z,23.07
2022-08-17T06:02:48.029Z,23.07
2022-08-17T06:05:33.725Z,23.04
2022-08-17T06:07:45.325Z,22.81
2022-08-17T06:09:58.444Z,22.81
2022-08-17T06:12:08.074Z,22.70
2022-08-17T06:14:28.212Z,22.68
2022-08-17T06:16:34.110Z,22.73
2022-08-17T06:18:52.014Z,22.86
2022-08-17T06:21:07.987Z,22.89
2022-08-17T06:23:21.667Z,22.95
2022-08-17T06:25:30.758Z,23.06
2022-08-17T06:27:59.887Z,22.89
2022-08-17T06:30:16.079Z,22.72
2022-08-17T06:32:18.438Z,22.79
2022-08-17T06:34:21.019Z,22.89
2022-08-17T06:36:47.816Z,23.10
2022-08-17T06:39:28.635Z,23.34
2022-08-17T06:41:38.149Z,23.43
2022-08-17T06:44:49.695Z,23.63
2022-08-17T06:46:59.336Z,23.78
2022-08-17T06:49:09.729Z,23.79
2022-08-17T06:51:23.798Z,23.96
2022-08-17T06:53:31.815Z,24.05
2022-08-17T06:55:50.736Z,24.05
2022-08-17T06:57:58.293Z,23.90
2022-08-17T07:00:09.108Z,23.98
2022-08-17T07:02:17.273Z,24.19
2022-08-17T07:04:21.764Z,24.45
2022-08-17T07:07:22.170Z,24.52
2022-08-17T07:09:29.870Z,24.39
2022-08-17T07:11:57.849Z,24.39
2022-08-17T07:13:59.605Z,24.58
2022-08-17T07:16:11.222Z,24.79
2022-08-17T07:18:13.185Z,24.98
2022-08-17T07:20:20.193Z,25.15
2022-08-17T07:23:00.765Z,25.30
2022-08-17T07:25:09.502Z,25.38
2022-08-17T07:27:21.669Z,25.37
2022-08-17T07:29:23.762Z,25.48
2022-08-17T07:31:26.844Z,25.68
2022-08-17T07:33:31.243Z,25.61
2022-08-17T07:35:44.553Z,25.36
2022-08-17T07:37:54.616Z,25.32
2022-08-17T07:40:15.314Z,25.40
2022-08-17T07:42:18.619Z,25.69
2022-08-17T07:44:20.576Z,25.86
2022-08-17T07:46:45.687Z,26.04
2022-08-17T07:48:50.967Z,25.88
2022-08-17T07:50:53.362Z,25.79
2022-08-17T07:52:55.746Z,25.85
2022-08-17T07:54:58.317Z,25.91
2022-08-17T07:57:09.150Z,26.07
2022-08-17T07:59:23.508Z,26.27
2022-08-17T08:01:26.139Z,26.52
2022-08-17T08:03:43.797Z,26.41
2022-08-17T08:05:56.485Z,26.49
2022-08-17T08:08:01.621Z,26.66
2022-08-17T08:10:42.728Z,26.33
2022-08-17T08:12:49.073Z,26.44
2022-08-17T08:14:59.209Z,26.59
2022-08-17T08:17:04.597Z,26.38
2022-08-17T08:19:08.427Z,26.25
2022-08-17T08:21:33.588Z,26.24
2022-08-17T08:23:51.280Z,26.43
2022-08-17T08:26:05.469Z,26.64
2022-08-17T08:28:40.598Z,26.81
2022-08-17T08:31:02.123Z,26.88
2022-08-17T08:33:25.543Z,26.87
2022-08-17T08:35:40.717Z,27.10
2022-08-17T08:37:46.604Z,27.14
2022-08-17T08:40:02.725Z,27.11
2022-08-17T08:42:13.482Z,26.99
2022-08-17T08:44:59.535Z,27.14
2022-08-17T08:47:07.695Z,26.98
2022-08-17T08:49:59.505Z,27.10
2022-08-17T08:52:02.121Z,27.22
2022-08-17T08:54:34.561Z,27.32
2022-08-17T08:57:24.284Z,27.46
2022-08-17T08:59:35.676Z,27.67
2022-08-17T09:01:49.858Z,27.68
2022-08-17T09:04:17.934Z,27.88
2022-08-17T09:06:33.219Z,27.95
2022-08-17T09:09:02.877Z,28.01
2022-08-17T09:11:22.990Z,27.91
2022-08-17T09:13:41.682Z,28.08
2022-08-17T09:15:49.609Z,28.13
2022-08-17T09:20:50.361Z,28.42
2022-08-17T09:23:07.286Z,28.22
2022-08-17T09:25:22.682Z,28.16
2022-08-17T09:27:31.376Z,27.83
2022-08-17T09:29:37.012Z,27.95
2022-08-17T09:31:55.962Z,28.05
2022-08-17T09:33:59.422Z,27.79
2022-08-17T09:36:10.265Z,28.12
2022-08-17T09:38:29.204Z,28.00
2022-08-17T09:40:57.167Z,27.88
2022-08-17T09:43:06.649Z,28.05
2022-08-17T09:45:28.628Z,28.19
2022-08-17T09:47:45.550Z,28.21
2022-08-17T09:49:50.969Z,28.28
2022-08-17T09:51:58.345Z,28.34
2022-08-17T09:54:15.134Z,28.21
2022-08-17T09:57:18.145Z,27.70
2022-08-17T09:59:36.527Z,28.02
2022-08-17T10:01:50.568Z,28.02
2022-08-17T10:04:12.662Z,28.39
2022-08-17T10:06:23.606Z,28.66
2022-08-17T10:08:34.822Z,28.81
2022-08-17T10:10:56.329Z,28.77
2022-08-17T10:13:09.799Z,28.86
2022-08-17T10:15:15.025Z,29.10
2022-08-17T10:17:25.152Z,28.55
2022-08-17T10:19:43.914Z,28.48
2022-08-17T10:22:33.001Z,28.76
2022-08-17T10:25:22.935Z,28.72
2022-08-17T10:27:38.326Z,28.92
2022-08-17T10:29:48.568Z,29.02
2022-08-17T10:31:59.712Z,28.94
2022-08-17T10:34:25.613Z,28.78
2022-08-17T10:36:46.243Z,28.49
2022-08-17T10:39:04.716Z,28.61
2022-08-17T10:41:36.878Z,28.57
2022-08-17T10:44:36.659Z,28.66
2022-08-17T10:46:31.410Z,28.97
2022-08-17T10:48:39.074Z,29.27
2022-08-17T10:50:58.176Z,29.34
2022-08-17T10:53:00.052Z,29.56
2022-08-17T10:55:01.751Z,29.77
2022-08-17T10:57:23.418Z,29.43
2022-08-17T10:59:58.983Z,29.59
2022-08-17T11:02:26.231Z,29.60
2022-08-17T11:04:46.586Z,29.70
2022-08-17T11:07:25.940Z,29.70
2022-08-17T11:09:43.489Z,29.71
2022-08-17T11:12:11.211Z,29.65
2022-08-17T11:14:24.139Z,29.90
2022-08-17T11:16:38.142Z,29.68
2022-08-17T11:19:15.271Z,29.55
2022-08-17T11:21:50.509Z,29.78
2022-08-17T11:24:11.788Z,30.01
2022-08-17T11:26:32.165Z,30.27
2022-08-17T11:28:45.029Z,30.49
2022-08-17T11:30:53.839Z,30.68
2022-08-17T11:32:58.505Z,30.67
2022-08-17T11:35:22.345Z,30.50
2022-08-17T11:37:27.888Z,29.65
2022-08-17T11:40:05.582Z,30.01
2022-08-17T11:42:26.627Z,30.11
2022-08-17T11:44:46.769Z,30.16
2022-08-17T11:47:19.039Z,30.29
2022-08-17T11:49:54.644Z,30.46
2022-08-17T11:52:00.334Z,29.88
2022-08-17T11:54:36.253Z,29.61
2022-08-17T11:56:47.203Z,29.19
2022-08-17T11:58:49.435Z,29.08
2022-08-17T12:00:58.520Z,28.86
2022-08-17T12:03:22.433Z,28.70
2022-08-17T12:05:27.672Z,28.73
2022-08-17T12:07:32.764Z,28.75
2022-08-17T12:09:39.561Z,28.66
2022-08-17T12:12:11.123Z,28.53
2022-08-17T12:14:20.183Z,28.51
2022-08-17T12:16:24.559Z,28.24
2022-08-17T12:18:34.019Z,28.08
2022-08-17T12:20:40.072Z,28.10
2022-08-17T12:23:14.095Z,28.30
2022-08-17T12:25:49.484Z,28.41
2022-08-17T12:28:05.108Z,28.10
2022-08-17T12:30:14.007Z,28.01
2022-08-17T12:32:18.401Z,28.20
2022-08-17T12:34:24.356Z,28.44
2022-08-17T12:36:28.451Z,28.59
2022-08-17T12:38:34.681Z,28.71
2022-08-17T12:40:37.708Z,28.79
2022-08-17T12:42:40.474Z,28.77
2022-08-17T12:44:50.440Z,28.36
2022-08-17T12:47:04.861Z,28.63
2022-08-17T12:49:29.064Z,28.93
2022-08-17T12:51:31.907Z,28.97
2022-08-17T12:53:37.492Z,29.10
2022-08-17T12:55:40.522Z,29.03
2022-08-17T12:57:44.838Z,28.71
2022-08-17T12:59:50.951Z,28.71
2022-08-17T13:01:53.983Z,28.78
2022-08-17T13:03:59.833Z,28.66
2022-08-17T13:06:06.354Z,28.64
2022-08-17T13:08:27.467Z,28.71
2022-08-17T13:10:33.310Z,28.48
2022-08-17T13:12:36.362Z,28.68
2022-08-17T13:14:38.245Z,28.89
2022-08-17T13:16:40.324Z,29.02
2022-08-17T13:18:44.199Z,29.11
2022-08-17T13:20:53.472Z,29.12
2022-08-17T13:22:58.123Z,29.15
2022-08-17T13:25:07.020Z,29.14
2022-08-17T13:27:12.608Z,29.09
2022-08-17T13:29:38.991Z,29.05
2022-08-17T13:31:52.388Z,29.15
2022-08-17T13:34:31.391Z,29.15
2022-08-17T13:36:35.092Z,28.78
2022-08-17T13:38:41.314Z,28.70
2022-08-17T13:40:50.256Z,28.98
2022-08-17T13:42:54.190Z,28.91
2022-08-17T13:44:56.707Z,28.95
2022-08-17T13:47:00.925Z,29.09
2022-08-17T13:49:06.732Z,29.02
2022-08-17T13:51:20.141Z,28.58
2022-08-17T13:53:28.162Z,28.61
2022-08-17T13:55:33.134Z,28.82
2022-08-17T13:57:35.890Z,28.95
2022-08-17T13:59:55.249Z,29.09
2022-08-17T14:01:58.224Z,29.27
2022-08-17T14:04:03.076Z,29.47
2022-08-17T14:06:05.172Z,29.71
2022-08-17T14:08:07.348Z,29.64
2022-08-17T14:10:17.522Z,29.38
2022-08-17T14:12:25.062Z,29.48
2022-08-17T14:14:27.247Z,29.70
2022-08-17T14:16:29.660Z,29.67
2022-08-17T14:18:43.343Z,29.66
2022-08-17T14:20:56.702Z,29.73
2022-08-17T14:22:58.618Z,29.67
2022-08-17T14:25:01.843Z,29.87
2022-08-17T14:27:04.381Z,29.70
2022-08-17T14:29:15.150Z,29.61
2022-08-17T14:31:17.438Z,29.60
2022-08-17T14:33:22.617Z,29.80
2022-08-17T14:35:24.952Z,29.63
2022-08-17T14:37:28.342Z,29.83
2022-08-17T14:39:30.149Z,29.99
2022-08-17T14:41:31.955Z,30.02
2022-08-17T14:43:34.871Z,29.84
2022-08-17T14:45:37.202Z,29.80
2022-08-17T14:47:41.396Z,29.89
2022-08-17T14:49:43.966Z,30.11
2022-08-17T14:51:49.638Z,30.03
2022-08-17T14:53:51.507Z,30.02
2022-08-17T14:55:53.406Z,30.04
2022-08-17T14:57:55.457Z,29.87
2022-08-17T14:59:57.799Z,29.94
2022-08-17T15:02:00.621Z,30.26
2022-08-17T15:04:02.380Z,30.29
2022-08-17T15:06:04.317Z,30.32
2022-08-17T15:08:11.665Z,30.40
2022-08-17T15:10:14.844Z,30.61
2022-08-17T15:12:20.738Z,30.66
2022-08-17T15:14:23.266Z,30.77
2022-08-17T15:16:27.140Z,30.86
2022-08-17T15:18:30.358Z,30.80
2022-08-17T15:20:32.471Z,30.75
2022-08-17T15:22:34.204Z,30.96
2022-08-17T15:24:35.950Z,30.92
2022-08-17T15:26:38.209Z,30.70
2022-08-17T15:28:39.975Z,31.01
2022-08-17T15:30:45.106Z,31.11
2022-08-17T15:32:54.423Z,31.14
2022-08-17T15:34:59.412Z,31.11
2022-08-17T15:37:03.304Z,30.99
2022-08-17T15:39:05.127Z,30.95
2022-08-17T15:41:09.074Z,31.00
2022-08-17T15:43:24.775Z,31.07
2022-08-17T15:45:30.715Z,31.33
2022-08-17T15:47:32.686Z,31.58
2022-08-17T15:49:34.381Z,31.71
2022-08-17T15:51:36.508Z,31.66
2022-08-17T15:53:39.787Z,31.79
2022-08-17T15:55:42.079Z,31.80
2022-08-17T15:57:45.061Z,31.86
2022-08-17T15:59:52.044Z,31.79
2022-08-17T16:03:09.880Z,31.86
2022-08-17T16:04:29.806Z,31.84
2022-08-17T16:06:32.977Z,31.67
2022-08-17T16:08:35.995Z,31.63
2022-08-17T16:10:38.102Z,31.72
2022-08-17T16:12:40.660Z,31.83
2022-08-17T16:14:43.567Z,31.86
2022-08-17T16:16:45.398Z,31.86
2022-08-17T16:18:47.444Z,31.72
2022-08-17T16:20:57.068Z,31.62
2022-08-17T16:22:59.124Z,31.34
2022-08-17T16:25:04.620Z,31.23
2022-08-17T16:27:12.501Z,31.32
2022-08-17T16:29:14.559Z,31.35
2022-08-17T16:31:16.718Z,31.28
2022-08-17T16:33:18.651Z,31.27
2022-08-17T16:35:22.617Z,31.28
2022-08-17T16:37:24.405Z,31.32
2022-08-17T16:39:31.494Z,31.34
2022-08-17T16:41:45.919Z,31.36
2022-08-17T16:43:51.099Z,31.23
2022-08-17T16:45:52.943Z,31.17
2022-08-17T16:47:59.361Z,31.15
2022-08-17T16:50:03.676Z,30.96
2022-08-17T16:52:12.084Z,30.93
2022-08-17T16:54:17.588Z,30.81
2022-08-17T16:56:20.036Z,30.56
2022-08-17T16:58:21.814Z,30.40
2022-08-17T17:00:23.904Z,30.12
2022-08-17T17:02:27.259Z,29.88
2022-08-17T17:04:29.018Z,29.74
2022-08-17T17:06:39.953Z,29.54
2022-08-17T17:08:48.500Z,29.42
2022-08-17T17:10:52.742Z,29.26
2022-08-17T17:13:01.546Z,29.15
2022-08-17T17:15:06.647Z,29.05
2022-08-17T17:17:25.440Z,28.94
2022-08-17T17:19:34.930Z,28.84
2022-08-17T17:21:46.343Z,28.69
2022-08-17T17:23:56.844Z,28.62
2022-08-17T17:26:22.734Z,28.46
2022-08-17T17:28:31.395Z,28.42
2022-08-17T17:30:38.261Z,28.35
2022-08-17T17:32:45.888Z,28.27
2022-08-17T17:35:06.040Z,28.17
2022-08-17T17:37:12.845Z,28.08
2022-08-17T17:39:23.884Z,27.98
2022-08-17T17:41:31.860Z,27.88
2022-08-17T17:43:41.106Z,27.82
2022-08-17T17:46:26.615Z,27.74
2022-08-17T17:48:31.529Z,27.63
2022-08-17T17:50:37.724Z,27.56
2022-08-17T17:52:41.351Z,27.50
2022-08-17T17:54:46.276Z,27.42
2022-08-17T17:57:03.508Z,27.36
2022-08-17T17:59:12.714Z,27.30
2022-08-17T18:01:42.231Z,27.28
2022-08-17T18:03:47.013Z,27.25
2022-08-17T18:06:00.624Z,27.19
2022-08-17T18:08:37.459Z,27.13
2022-08-17T18:10:51.607Z,27.09
2022-08-17T18:13:02.800Z,26.99
2022-08-17T18:15:22.051Z,26.99
2022-08-17T18:17:24.222Z,27.00
2022-08-17T18:19:29.137Z,27.05
2022-08-17T18:21:44.540Z,27.04
2022-08-17T18:23:48.413Z,27.00
2022-08-17T18:25:53.651Z,26.97
2022-08-17T18:27:58.388Z,27.00
2022-08-17T18:30:27.822Z,26.99
2022-08-17T18:32:41.007Z,26.98
2022-08-17T18:34:47.725Z,26.95
2022-08-17T18:36:50.675Z,26.94
2022-08-17T18:39:14.880Z,26.91
2022-08-17T18:41:20.807Z,26.93
2022-08-17T18:43:53.136Z,26.89
2022-08-17T18:45:57.383Z,26.86
2022-08-17T18:47:59.492Z,26.85
2022-08-17T18:50:22.205Z,26.82
2022-08-17T18:52:30.403Z,26.77
2022-08-17T18:54:32.451Z,26.76
2022-08-17T18:56:36.613Z,26.68
2022-08-17T18:58:38.626Z,26.69
2022-08-17T19:00:42.479Z,26.68
2022-08-17T19:03:00.125Z,26.64
2022-08-17T19:05:08.030Z,26.63
2022-08-17T19:07:24.489Z,26.60
2022-08-17T19:09:49.178Z,26.52
2022-08-17T19:11:51.364Z,26.50
2022-08-17T19:13:57.521Z,26.49
2022-08-17T19:16:14.069Z,26.48
2022-08-17T19:18:30.552Z,26.45
2022-08-17T19:20:59.958Z,26.45
2022-08-17T19:23:08.418Z,26.42
2022-08-17T19:25:19.898Z,26.41
2022-08-17T19:27:41.981Z,26.39
2022-08-17T19:30:08.411Z,26.39
2022-08-17T19:32:11.668Z,26.36
2022-08-17T19:34:15.047Z,26.33
2022-08-17T19:36:22.588Z,26.31
2022-08-17T19:38:54.461Z,26.30
2022-08-17T19:41:00.158Z,26.27
2022-08-17T19:43:28.978Z,26.26
2022-08-17T19:45:49.809Z,26.24
2022-08-17T19:48:10.109Z,26.24
2022-08-17T19:50:38.533Z,26.22
2022-08-17T19:52:43.255Z,26.20
2022-08-17T19:54:55.732Z,26.19
2022-08-17T19:57:18.062Z,26.17
2022-08-17T19:59:26.800Z,26.19
2022-08-17T20:02:01.083Z,26.19
2022-08-17T20:04:32.375Z,26.14
2022-08-17T20:06:38.010Z,26.16
2022-08-17T20:08:54.381Z,26.14
2022-08-17T20:11:08.852Z,26.15
2022-08-17T20:13:18.818Z,26.13
2022-08-17T20:15:40.143Z,26.12
2022-08-17T20:17:45.261Z,26.12
2022-08-17T20:20:02.012Z,26.11
2022-08-17T20:22:06.637Z,26.09
2022-08-17T20:24:31.670Z,26.07
2022-08-17T20:27:01.203Z,26.02
2022-08-17T20:29:14.994Z,26.01
2022-08-17T20:31:35.299Z,26.00
2022-08-17T20:33:38.026Z,25.98
2022-08-17T20:35:40.848Z,25.91
2022-08-17T20:37:54.456Z,25.87
2022-08-17T20:39:56.324Z,25.86
2022-08-17T20:42:12.835Z,25.81
2022-08-17T20:44:33.143Z,25.79
2022-08-17T20:46:38.454Z,25.75
2022-08-17T20:48:45.190Z,25.74
2022-08-17T20:50:51.907Z,25.75
2022-08-17T20:53:13.528Z,25.72
2022-08-17T20:55:52.009Z,25.67
2022-08-17T20:57:54.900Z,25.65
2022-08-17T21:00:18.422Z,25.65
2022-08-17T21:02:22.132Z,25.65
2022-08-17T21:04:47.651Z,25.65
2022-08-17T21:07:23.384Z,25.64
2022-08-17T21:09:30.036Z,25.63
2022-08-17T21:11:57.009Z,25.64
2022-08-17T21:13:58.237Z,25.61
2022-08-17T21:16:07.661Z,25.60
2022-08-17T21:18:39.107Z,25.58
2022-08-17T21:20:47.193Z,25.57
2022-08-17T21:23:01.606Z,25.57
2022-08-17T21:25:25.414Z,25.56
2022-08-17T21:27:46.619Z,25.54
2022-08-17T21:30:06.426Z,25.50
2022-08-17T21:32:09.644Z,25.40
2022-08-17T21:34:15.212Z,25.33
2022-08-17T21:36:24.076Z,25.31
2022-08-17T21:38:53.383Z,25.32
2022-08-17T21:40:58.915Z,25.28
2022-08-17T21:43:24.335Z,25.22
2022-08-17T21:45:31.935Z,25.12
2022-08-17T21:47:34.956Z,25.07
2022-08-17T21:49:38.057Z,25.03
2022-08-17T21:51:45.926Z,25.01
2022-08-17T21:53:54.061Z,24.98
2022-08-17T21:55:56.332Z,24.96
2022-08-17T21:58:14.586Z,24.92
2022-08-17T22:00:25.290Z,24.88
2022-08-17T22:02:37.405Z,24.87
2022-08-17T22:04:41.586Z,24.87
2022-08-17T22:06:56.737Z,24.86
2022-08-17T22:09:07.392Z,24.84
2022-08-17T22:11:09.183Z,24.85
2022-08-17T22:13:20.710Z,24.83
2022-08-17T22:15:23.725Z,24.81
2022-08-17T22:17:37.092Z,24.85
2022-08-17T22:19:39.288Z,24.84
2022-08-17T22:21:41.070Z,24.81
2022-08-17T22:24:03.316Z,24.79
2022-08-17T22:26:09.608Z,24.80
2022-08-17T22:28:38.399Z,24.80
2022-08-17T22:30:41.967Z,24.74
2022-08-17T22:32:46.191Z,24.70
2022-08-17T22:35:26.145Z,24.68
2022-08-17T22:37:29.075Z,24.65
2022-08-17T22:39:40.474Z,24.63
2022-08-17T22:41:52.151Z,24.61
2022-08-17T22:43:55.144Z,24.56
2022-08-17T22:45:59.363Z,24.56
2022-08-17T22:48:02.212Z,24.51
2022-08-17T22:50:13.587Z,24.53
2022-08-17T22:52:15.213Z,24.51
2022-08-17T22:54:37.740Z,24.45
2022-08-17T22:57:12.135Z,24.43
2022-08-17T22:59:33.733Z,24.45
2022-08-17T23:01:35.625Z,24.42
2022-08-17T23:03:53.430Z,24.35
2022-08-17T23:06:08.192Z,24.37
2022-08-17T23:08:11.710Z,24.38
2022-08-17T23:10:13.615Z,24.36
2022-08-17T23:12:22.386Z,24.33
2022-08-17T23:14:31.539Z,24.35
2022-08-17T23:16:33.472Z,24.32
2022-08-17T23:18:36.023Z,24.34
2022-08-17T23:20:39.694Z,24.37
2022-08-17T23:22:51.095Z,24.33
2022-08-17T23:24:54.517Z,24.31
2022-08-17T23:26:57.535Z,24.31
2022-08-17T23:29:02.462Z,24.30
2022-08-17T23:31:07.970Z,24.29
2022-08-17T23:33:21.709Z,24.29
2022-08-17T23:35:39.904Z,24.36
2022-08-17T23:37:42.883Z,24.33
2022-08-17T23:39:45.536Z,24.30
2022-08-17T23:41:47.643Z,24.31
2022-08-17T23:43:51.850Z,24.27
2022-08-17T23:45:59.644Z,24.22
2022-08-17T23:48:02.435Z,24.14
2022-08-17T23:50:05.577Z,24.11
2022-08-17T23:52:10.053Z,24.06
2022-08-17T23:54:16.232Z,24.05
2022-08-17T23:56:24.039Z,24.03
2022-08-17T23:58:26.234Z,24.02
